Time;durP1;ratioP1;P1;durP2;ratioP2;P2;SDS_P1;SDS_P2;PMS_P1;PMS_P2;Temp;Humidity;BMP_temperature;BMP_pressure;BME280_temperature;BME280_humidity;BME280_pressure;Samples;Min_cycle;Max_cycle;Signal;HPM_P1;HPM_P2
2021/05/22 00:01:44;;;;;;;1999.90;999.90;;;;;;;9.58;100.00;95976.97;5069980;28;20295;-61
2021/05/22 00:04:10;;;;;;;1999.90;999.90;;;;;;;9.49;100.00;95980.16;5069715;28;20440;-60
2021/05/22 00:06:37;;;;;;;1999.90;999.90;;;;;;;9.48;100.00;95972.66;5069980;28;20192;-61
2021/05/22 00:09:05;;;;;;;1999.90;999.90;;;;;;;9.53;100.00;95959.63;5069693;28;20672;-61
2021/05/22 00:11:34;;;;;;;1999.90;999.90;;;;;;;9.45;100.00;95966.19;5069666;28;20203;-60
2021/05/22 00:14:01;;;;;;;1999.90;999.90;;;;;;;9.28;100.00;95960.63;5069584;28;20612;-61
2021/05/22 00:16:28;;;;;;;1999.90;999.90;;;;;;;9.20;100.00;95955.28;5070170;28;20236;-60
2021/05/22 00:18:55;;;;;;;1999.90;999.90;;;;;;;9.21;100.00;95946.44;5069770;28;20211;-60
2021/05/22 00:21:22;;;;;;;1999.90;999.90;;;;;;;9.26;100.00;95952.38;5069671;28;20240;-60
2021/05/22 00:23:48;;;;;;;1999.90;999.90;;;;;;;9.33;100.00;95957.22;5070003;28;20284;-60
2021/05/22 00:26:16;;;;;;;1999.90;999.90;;;;;;;9.30;100.00;95953.38;5069697;28;20208;-60
2021/05/22 00:28:43;;;;;;;1999.90;999.90;;;;;;;9.23;100.00;95952.91;5069708;28;20280;-60
2021/05/22 00:31:10;;;;;;;1999.90;999.90;;;;;;;9.19;100.00;95953.72;5069726;28;20201;-61
2021/05/22 00:33:37;;;;;;;1999.90;999.90;;;;;;;8.99;100.00;95957.25;5069412;28;20192;-60
2021/05/22 00:36:04;;;;;;;1999.90;999.90;;;;;;;8.97;100.00;95954.91;5069426;28;20276;-61
2021/05/22 00:38:31;;;;;;;1999.90;999.90;;;;;;;8.97;100.00;95947.16;5069776;28;20292;-61
2021/05/22 00:40:58;;;;;;;1999.90;999.90;;;;;;;8.86;100.00;95944.91;5069893;28;20228;-60
2021/05/22 00:43:26;;;;;;;1999.90;999.90;;;;;;;8.95;100.00;95938.09;5073018;28;20220;-60
2021/05/22 00:45:54;;;;;;;1999.90;999.90;;;;;;;9.02;100.00;95943.75;5072952;28;20199;-62
2021/05/22 00:48:21;;;;;;;1999.90;999.90;;;;;;;8.98;100.00;95937.56;5072709;28;20251;-60
2021/05/22 00:50:50;;;;;;;1999.90;999.90;;;;;;;9.02;100.00;95935.97;5073204;28;20258;-60
2021/05/22 00:53:18;;;;;;;1999.90;999.90;;;;;;;9.01;100.00;95932.63;5072967;28;20193;-60
2021/05/22 00:55:45;;;;;;;1999.90;999.90;;;;;;;9.08;100.00;95937.47;5072719;28;20196;-61
2021/05/22 00:58:12;;;;;;;1999.90;999.90;;;;;;;9.01;100.00;95927.44;5073309;28;20213;-60
2021/05/22 01:00:46;;;;;;;1999.90;999.90;;;;;;;9.05;100.00;95927.66;5072613;28;20331;-61
2021/05/22 01:03:18;;;;;;;1999.90;999.90;;;;;;;9.06;100.00;95924.03;5072832;28;20197;-63
2021/05/22 01:05:45;;;;;;;1999.90;999.90;;;;;;;9.02;100.00;95926.38;5072822;28;20189;-61
2021/05/22 01:08:18;;;;;;;1999.90;999.90;;;;;;;8.99;100.00;95924.31;5072592;28;20235;-61
2021/05/22 01:10:49;;;;;;;1999.90;999.90;;;;;;;9.01;100.00;95926.66;5072546;28;20196;-60
2021/05/22 01:13:19;;;;;;;1999.90;999.90;;;;;;;9.04;100.00;95926.88;5072575;28;20196;-61
2021/05/22 01:15:51;;;;;;;1999.90;999.90;;;;;;;8.77;100.00;95930.97;5072431;28;20242;-62
2021/05/22 01:18:18;;;;;;;1999.90;999.90;;;;;;;8.67;100.00;95941.44;5072333;28;20603;-61
2021/05/22 01:20:50;;;;;;;1999.90;999.90;;;;;;;8.74;100.00;95932.28;5072455;28;20282;-61
2021/05/22 01:23:21;;;;;;;1999.90;999.90;;;;;;;8.74;100.00;95934.13;5072301;28;20196;-61
2021/05/22 01:25:50;;;;;;;1999.90;999.90;;;;;;;8.77;100.00;95931.75;5072472;28;20577;-60
2021/05/22 01:28:17;;;;;;;1999.90;999.90;;;;;;;8.84;100.00;95923.66;5072664;28;20288;-60
2021/05/22 01:30:45;;;;;;;1999.90;999.90;;;;;;;8.64;100.00;95930.56;5072339;28;20196;-62
2021/05/22 01:33:12;;;;;;;1999.90;999.90;;;;;;;7.99;100.00;95941.22;5072482;28;20200;-61
2021/05/22 01:35:41;;;;;;;1999.90;999.90;;;;;;;7.91;100.00;95939.19;5072034;28;20208;-61
2021/05/22 01:38:07;;;;;;;1999.90;999.90;;;;;;;7.79;100.00;95942.88;5071923;28;20663;-60
2021/05/22 01:40:34;;;;;;;1999.90;999.90;;;;;;;7.61;99.29;95947.84;5072138;28;20251;-61
2021/05/22 01:43:04;;;;;;;1999.90;999.90;;;;;;;7.45;98.66;95947.09;5071832;28;20686;-63
2021/05/22 01:45:34;;;;;;;1999.90;999.90;;;;;;;7.40;98.49;95938.56;5072123;28;20286;-60
2021/05/22 01:48:04;;;;;;;1999.90;999.90;;;;;;;7.24;98.78;95937.81;5072066;28;20204;-61
2021/05/22 01:50:34;;;;;;;1999.90;999.90;;;;;;;7.12;99.87;95945.06;5071771;28;20228;-60
2021/05/22 01:53:05;;;;;;;1999.90;999.90;;;;;;;7.12;100.00;95948.44;5070990;28;20189;-60
2021/05/22 01:55:33;;;;;;;1999.90;999.90;;;;;;;7.05;100.00;95939.38;5071635;28;20592;-61
2021/05/22 01:58:00;;;;;;;1999.90;999.90;;;;;;;7.20;100.00;95941.97;5071650;28;20196;-61
2021/05/22 02:00:28;;;;;;;1999.90;999.90;;;;;;;7.02;100.00;95942.50;5071610;28;20228;-61
2021/05/22 02:02:59;;;;;;;1999.90;999.90;;;;;;;7.11;100.00;95949.47;5071656;28;20201;-60
2021/05/22 02:05:28;;;;;;;1999.90;999.90;;;;;;;7.16;100.00;95949.47;5071360;28;20192;-60
2021/05/22 02:07:56;;;;;;;1999.90;999.90;;;;;;;7.20;100.00;95952.28;5071359;28;20200;-59
2021/05/22 02:10:24;;;;;;;1999.90;999.90;;;;;;;7.16;100.00;95946.09;5071707;28;20200;-59
2021/05/22 02:12:53;;;;;;;1999.90;999.90;;;;;;;7.15;100.00;95941.97;5071517;28;20212;-59
2021/05/22 02:15:21;;;;;;;1999.90;999.90;;;;;;;7.13;100.00;95928.50;5071077;28;20228;-60
2021/05/22 02:17:49;;;;;;;1999.90;999.90;;;;;;;7.19;100.00;95937.81;5071166;28;20249;-61
2021/05/22 02:20:19;;;;;;;1999.90;999.90;;;;;;;7.15;100.00;95932.41;5071331;28;20232;-60
2021/05/22 02:22:46;;;;;;;1999.90;999.90;;;;;;;7.27;100.00;95927.72;5071007;28;20216;-59
2021/05/22 02:25:16;;;;;;;1999.90;999.90;;;;;;;7.28;100.00;95925.91;5071010;28;20207;-59
2021/05/22 02:27:44;;;;;;;1999.90;999.90;;;;;;;7.27;100.00;95932.88;5071521;28;20196;-58
2021/05/22 02:30:15;;;;;;;1999.90;999.90;;;;;;;7.21;100.00;95938.34;5070934;28;20284;-58
2021/05/22 02:32:43;;;;;;;1999.90;999.90;;;;;;;7.00;100.00;95931.63;5070824;28;20203;-59
2021/05/22 02:35:13;;;;;;;1999.90;999.90;;;;;;;6.98;100.00;95928.53;5070751;28;20679;-59
2021/05/22 02:37:40;;;;;;;1999.90;999.90;;;;;;;7.08;100.00;95937.03;5070968;28;20220;-60
2021/05/22 02:40:11;;;;;;;1999.90;999.90;;;;;;;7.25;100.00;95945.31;5070645;28;20263;-59
2021/05/22 02:42:40;;;;;;;1999.90;999.90;;;;;;;7.25;100.00;95949.72;5070842;28;20270;-58
2021/05/22 02:45:10;;;;;;;1999.90;999.90;;;;;;;7.17;100.00;95945.06;5070953;28;20679;-59
2021/05/22 02:47:38;;;;;;;1999.90;999.90;;;;;;;7.10;100.00;95939.38;5070558;28;20196;-59
2021/05/22 02:50:08;;;;;;;1999.90;999.90;;;;;;;6.95;100.00;95947.13;5070905;28;20294;-59
2021/05/22 02:52:37;;;;;;;1999.90;999.90;;;;;;;7.08;100.00;95949.19;5070561;28;20188;-57
2021/05/22 02:55:07;;;;;;;1999.90;999.90;;;;;;;7.13;100.00;95944.03;5070388;28;20772;-59
2021/05/22 02:57:35;;;;;;;1999.90;999.90;;;;;;;7.01;100.00;95951.28;5070549;28;20254;-61
2021/05/22 03:00:02;;;;;;;1999.90;999.90;;;;;;;7.11;100.00;95952.06;5070389;28;20318;-59
2021/05/22 03:02:29;;;;;;;1999.90;999.90;;;;;;;7.09;100.00;95953.34;5070426;28;20188;-60
2021/05/22 03:04:57;;;;;;;1999.90;999.90;;;;;;;7.13;100.00;95951.78;5069398;28;20200;-59
2021/05/22 03:07:23;;;;;;;1999.90;999.90;;;;;;;7.16;100.00;95949.47;5070776;28;20277;-59
2021/05/22 03:09:51;;;;;;;1999.90;999.90;;;;;;;7.18;100.00;95951.78;5070305;28;20197;-59
2021/05/22 03:12:21;;;;;;;1999.90;999.90;;;;;;;7.21;100.00;95959.81;5070575;28;20228;-60
2021/05/22 03:14:48;;;;;;;1999.90;999.90;;;;;;;7.30;100.00;95958.22;5070025;28;20228;-60
2021/05/22 03:17:16;;;;;;;1999.90;999.90;;;;;;;7.30;100.00;95960.03;5070834;28;20234;-59
2021/05/22 03:19:43;;;;;;;1999.90;999.90;;;;;;;7.30;100.00;95962.63;5070089;28;20642;-59
2021/05/22 03:22:10;;;;;;;1999.90;999.90;;;;;;;7.30;100.00;95970.38;5070435;28;20281;-61
2021/05/22 03:24:37;;;;;;;1999.90;999.90;;;;;;;7.31;100.00;95970.13;5070221;28;20296;-59
2021/05/22 03:27:06;;;;;;;1999.90;999.90;;;;;;;7.46;100.00;95984.84;5070230;28;20188;-60
2021/05/22 03:29:33;;;;;;;1999.90;999.90;;;;;;;7.58;100.00;95984.56;5070098;28;20193;-59
2021/05/22 03:31:59;;;;;;;1999.90;999.90;;;;;;;7.65;100.00;95979.91;5070338;28;20207;-60
2021/05/22 03:34:26;;;;;;;1999.90;999.90;;;;;;;7.78;100.00;95980.13;5070145;28;20224;-60
2021/05/22 03:36:53;;;;;;;1999.90;999.90;;;;;;;7.75;100.00;95987.63;5070009;28;20226;-58
2021/05/22 03:39:20;;;;;;;1999.90;999.90;;;;;;;7.76;100.00;95989.19;5070278;28;20298;-59
2021/05/22 03:41:47;;;;;;;1999.90;999.90;;;;;;;7.83;100.00;95994.06;5069835;28;20196;-59
2021/05/22 03:44:14;;;;;;;1999.90;999.90;;;;;;;7.90;100.00;96003.13;5069747;28;20197;-60
2021/05/22 03:46:41;;;;;;;1999.90;999.90;;;;;;;7.96;100.00;95998.72;5069888;28;20800;-60
2021/05/22 03:49:08;;;;;;;1999.90;999.90;;;;;;;8.00;100.00;96004.91;5070007;28;20261;-60
2021/05/22 03:51:35;;;;;;;1999.90;999.90;;;;;;;8.05;100.00;96012.66;5069767;28;20670;-59
2021/05/22 03:54:01;;;;;;;1999.90;999.90;;;;;;;8.11;100.00;96012.38;5070117;28;20193;-60
2021/05/22 03:56:28;;;;;;;1999.90;999.90;;;;;;;8.16;100.00;96009.00;5069754;28;20196;-59
2021/05/22 03:58:55;;;;;;;1999.90;999.90;;;;;;;8.28;100.00;96006.84;5070082;28;20286;-60
2021/05/22 04:01:23;;;;;;;1999.90;999.90;;;;;;;8.19;100.00;96005.88;5069693;28;20722;-59
2021/05/22 04:03:50;;;;;;;1999.90;999.90;;;;;;;8.27;100.00;96002.72;5070251;28;20192;-59
2021/05/22 04:06:17;;;;;;;1999.90;999.90;;;;;;;8.54;100.00;96004.97;5069675;28;20250;-59
2021/05/22 04:08:43;;;;;;;1999.90;999.90;;;;;;;8.69;100.00;95996.31;5069931;28;20188;-59
2021/05/22 04:11:10;;;;;;;1999.90;999.90;;;;;;;8.85;100.00;96000.38;5069794;28;20222;-60
2021/05/22 04:13:37;;;;;;;1999.90;999.90;;;;;;;9.03;100.00;95997.91;5069643;28;20205;-59
2021/05/22 04:16:04;;;;;;;1999.90;999.90;;;;;;;9.23;100.00;95986.59;5069894;28;20319;-60
2021/05/22 04:18:32;;;;;;;1999.90;999.90;;;;;;;9.51;100.00;95993.63;5073980;28;20192;-60
2021/05/22 04:20:59;;;;;;;1999.90;999.90;;;;;;;9.70;100.00;95985.16;5073331;28;20718;-60
2021/05/22 04:23:26;;;;;;;1999.90;999.90;;;;;;;10.06;100.00;95988.91;5073372;28;20946;-59
2021/05/22 04:25:53;;;;;;;1999.90;999.90;;;;;;;10.51;100.00;95994.66;5073739;28;20188;-60
2021/05/22 04:28:19;;;;;;;1999.90;999.90;;;;;;;10.87;100.00;95992.31;5073291;28;20200;-59
2021/05/22 04:30:46;;;;;;;1999.90;999.90;;;;;;;11.46;99.71;95989.03;5073312;28;20290;-60
2021/05/22 04:33:13;;;;;;;1999.90;999.90;;;;;;;11.41;96.55;95997.72;5073255;28;20201;-60
2021/05/22 04:35:41;;;;;;;1999.90;999.90;;;;;;;11.72;95.16;95997.19;5073588;28;20200;-60
2021/05/22 04:38:08;;;;;;;1999.90;999.90;;;;;;;11.87;93.73;95999.56;5073370;28;20188;-60
2021/05/22 04:40:35;;;;;;;1999.90;999.90;;;;;;;11.89;91.96;96003.44;5073257;28;20311;-61
2021/05/22 04:43:03;;;;;;;1999.90;999.90;;;;;;;11.74;93.94;95998.50;5073077;28;20201;-61
2021/05/22 04:45:30;;;;;;;1999.90;999.90;;;;;;;11.72;95.03;95997.97;5073062;28;20246;-61
2021/05/22 04:47:56;;;;;;;1999.90;999.90;;;;;;;11.89;95.24;96002.66;5072047;28;20524;-61
2021/05/22 04:50:25;;;;;;;1999.90;999.90;;;;;;;11.84;94.61;96011.34;5072780;28;20204;-60
2021/05/22 04:52:53;;;;;;;1999.90;999.90;;;;;;;11.78;94.77;96020.28;5073401;28;20201;-61
2021/05/22 04:55:20;;;;;;;1999.90;999.90;;;;;;;12.01;94.34;96021.16;5072835;28;20253;-59
2021/05/22 04:57:47;;;;;;;1999.90;999.90;;;;;;;12.16;93.55;96023.50;5072980;28;20728;-61
2021/05/22 05:00:15;;;;;;;1999.90;999.90;;;;;;;12.13;94.61;96028.50;5072618;28;20224;-61
2021/05/22 05:02:42;;;;;;;1999.90;999.90;;;;;;;12.15;94.60;96036.84;5072686;28;20238;-60
2021/05/22 05:05:10;;;;;;;1999.90;999.90;;;;;;;12.34;94.80;96040.88;5072845;28;20200;-61
2021/05/22 05:07:40;;;;;;;1999.90;999.90;;;;;;;12.40;93.90;96038.94;5072504;28;20197;-61
2021/05/22 05:10:10;;;;;;;1999.90;999.90;;;;;;;12.33;93.89;96034.13;5072598;28;20202;-60
2021/05/22 05:12:37;;;;;;;1999.90;999.90;;;;;;;12.22;94.53;96032.00;5072452;28;20640;-61
2021/05/22 05:15:05;;;;;;;1999.90;999.90;;;;;;;12.02;94.23;96031.31;5072492;28;20301;-60
2021/05/22 05:17:32;;;;;;;1999.90;999.90;;;;;;;12.15;94.99;96039.44;5072294;28;20192;-61
2021/05/22 05:20:00;;;;;;;1999.90;999.90;;;;;;;12.39;92.37;96042.63;5072504;28;20232;-59
2021/05/22 05:22:27;;;;;;;1999.90;999.90;;;;;;;12.68;90.87;96052.72;5072138;28;20229;-61
2021/05/22 05:24:54;;;;;;;1999.90;999.90;;;;;;;12.69;93.20;96056.88;5072180;28;20204;-61
2021/05/22 05:27:22;;;;;;;1999.90;999.90;;;;;;;12.85;93.27;96061.47;5071665;28;20603;-60
2021/05/22 05:29:49;;;;;;;1999.90;999.90;;;;;;;13.14;87.55;96068.22;5071509;28;20197;-60
2021/05/22 05:32:16;;;;;;;1999.90;999.90;;;;;;;13.22;89.67;96068.28;5072366;28;20230;-61
2021/05/22 05:34:43;;;;;;;1999.90;999.90;;;;;;;13.37;89.92;96077.59;5072165;28;20201;-61
2021/05/22 05:37:10;;;;;;;1999.90;999.90;;;;;;;13.33;89.68;96077.41;5072008;28;20563;-60
2021/05/22 05:39:37;;;;;;;1999.90;999.90;;;;;;;13.36;88.56;96086.50;5071906;28;20204;-61
2021/05/22 05:42:05;;;;;;;1999.90;999.90;;;;;;;13.57;86.10;96074.50;5072058;28;20188;-62
2021/05/22 05:44:33;;;;;;;1999.90;999.90;;;;;;;13.69;85.76;96079.97;5072210;28;20205;-60
2021/05/22 05:47:00;;;;;;;1999.90;999.90;;;;;;;13.76;87.09;96071.69;5072083;28;20208;-60
2021/05/22 05:49:28;;;;;;;1999.90;999.90;;;;;;;13.66;87.54;96070.09;5071785;28;20690;-60
2021/05/22 05:51:56;;;;;;;1999.90;999.90;;;;;;;13.66;86.91;96070.09;5071815;28;20189;-60
2021/05/22 05:54:22;;;;;;;1999.90;999.90;;;;;;;13.74;86.27;96077.25;5071432;28;20273;-62
2021/05/22 05:56:49;;;;;;;1999.90;999.90;;;;;;;13.65;86.95;96079.00;5071765;28;20352;-61
2021/05/22 05:59:16;;;;;;;1999.90;999.90;;;;;;;13.95;86.85;96080.09;5071698;28;20192;-62
2021/05/22 06:01:44;;;;;;;1999.90;999.90;;;;;;;14.62;84.02;96090.41;5071601;28;20224;-60
2021/05/22 06:04:11;;;;;;;1999.90;999.90;;;;;;;14.88;83.45;96083.41;5071457;28;20209;-61
2021/05/22 06:06:38;;;;;;;1999.90;999.90;;;;;;;15.19;79.25;96087.75;5071533;28;20208;-60
2021/05/22 06:09:06;;;;;;;1999.90;999.90;;;;;;;15.22;81.75;96087.13;5071288;28;20283;-60
2021/05/22 06:11:34;;;;;;;1999.90;999.90;;;;;;;15.35;76.51;96094.81;5071156;28;20207;-59
2021/05/22 06:14:01;;;;;;;1999.90;999.90;;;;;;;15.43;77.18;96096.69;5071260;28;20201;-61
2021/05/22 06:16:29;;;;;;;1999.90;999.90;;;;;;;15.05;80.40;96109.59;5071030;28;20236;-61
2021/05/22 06:18:57;;;;;;;1999.90;999.90;;;;;;;15.26;80.92;96107.16;5070990;28;20200;-61
2021/05/22 06:21:24;;;;;;;1999.90;999.90;;;;;;;15.29;80.08;96108.41;5070942;28;20232;-61
2021/05/22 06:23:51;;;;;;;1999.90;999.90;;;;;;;15.35;81.94;96096.66;5071000;28;20196;-60
2021/05/22 06:26:18;;;;;;;1999.90;999.90;;;;;;;15.51;82.57;96105.63;5071323;28;20279;-60
2021/05/22 06:28:45;;;;;;;1999.90;999.90;;;;;;;15.34;81.10;96106.38;5071272;28;20292;-61
2021/05/22 06:31:12;;;;;;;1999.90;999.90;;;;;;;15.26;83.06;96099.28;5071171;28;20199;-60
2021/05/22 06:33:39;;;;;;;1999.90;999.90;;;;;;;15.23;81.71;96099.16;5070742;28;20196;-61
2021/05/22 06:36:08;;;;;;;1999.90;999.90;;;;;;;15.32;81.44;96100.69;5070873;28;20648;-60
2021/05/22 06:38:35;;;;;;;1999.90;999.90;;;;;;;14.99;82.17;96094.34;5070928;28;20197;-60
2021/05/22 06:41:03;;;;;;;1999.90;999.90;;;;;;;15.12;82.25;96103.13;5070327;28;20782;-60
2021/05/22 06:43:29;;;;;;;1999.90;999.90;;;;;;;15.40;82.44;96096.50;5070615;28;20200;-61
2021/05/22 06:45:59;;;;;;;1999.90;999.90;;;;;;;15.65;81.93;96094.97;5070998;28;20219;-60
2021/05/22 06:48:26;;;;;;;1999.90;999.90;;;;;;;15.92;78.68;96089.41;5070471;28;20630;-60
2021/05/22 06:50:53;;;;;;;1999.90;999.90;;;;;;;16.13;76.38;96098.16;5070488;28;20200;-61
2021/05/22 06:53:21;;;;;;;1999.90;999.90;;;;;;;16.36;78.30;96109.94;5070392;28;20577;-60
2021/05/22 06:55:48;;;;;;;1999.90;999.90;;;;;;;16.30;76.82;96111.19;5070360;28;20702;-60
2021/05/22 06:58:15;;;;;;;1999.90;999.90;;;;;;;16.53;77.24;96121.47;5070582;28;20200;-61
2021/05/22 07:00:42;;;;;;;1999.90;999.90;;;;;;;16.38;74.62;96117.50;5070326;28;20232;-60
2021/05/22 07:03:09;;;;;;;1999.90;999.90;;;;;;;16.23;74.94;96118.78;5070287;28;20196;-61
2021/05/22 07:05:36;;;;;;;1999.90;999.90;;;;;;;16.34;76.84;96127.84;5070719;28;20198;-61
2021/05/22 07:08:02;;;;;;;1999.90;999.90;;;;;;;16.69;77.25;96130.34;5070399;28;20545;-60
2021/05/22 07:10:30;;;;;;;1999.90;999.90;;;;;;;16.91;73.45;96129.31;5070373;28;20944;-61
2021/05/22 07:12:57;;;;;;;1999.90;999.90;;;;;;;17.12;72.46;96130.91;5070494;28;20200;-60
2021/05/22 07:15:24;;;;;;;1999.90;999.90;;;;;;;17.19;71.49;96130.38;5070136;28;20319;-60
2021/05/22 07:17:51;;;;;;;1999.90;999.90;;;;;;;17.28;69.45;96128.47;5069948;28;20189;-60
2021/05/22 07:20:18;;;;;;;1999.90;999.90;;;;;;;17.32;71.95;96123.34;5070213;28;20235;-62
2021/05/22 07:22:46;;;;;;;1999.90;999.90;;;;;;;17.46;70.97;96124.63;5070140;28;20227;-60
2021/05/22 07:25:13;;;;;;;1999.90;999.90;;;;;;;17.66;72.00;96122.34;5069964;28;20201;-60
2021/05/22 07:27:40;;;;;;;1999.90;999.90;;;;;;;17.85;71.33;96105.00;5070064;28;20572;-61
2021/05/22 07:30:09;;;;;;;1999.90;999.90;;;;;;;18.02;69.55;96107.47;5069804;28;20197;-61
2021/05/22 07:32:37;;;;;;;1999.90;999.90;;;;;;;18.15;72.27;96081.16;5070144;28;20223;-61
2021/05/22 07:35:05;;;;;;;1999.90;999.90;;;;;;;18.43;67.83;96076.81;5070129;28;20231;-61
2021/05/22 07:37:32;;;;;;;1999.90;999.90;;;;;;;18.44;66.98;96073.06;5069920;28;20199;-60
2021/05/22 07:40:00;;;;;;;1999.90;999.90;;;;;;;18.60;64.05;96066.09;5069910;28;20204;-59
2021/05/22 07:42:27;;;;;;;1999.90;999.90;;;;;;;18.54;63.34;96058.72;5069903;28;20196;-61
2021/05/22 07:44:56;;;;;;;1999.90;999.90;;;;;;;18.63;63.95;96060.16;5069781;28;20203;-60
2021/05/22 07:47:22;;;;;;;1999.90;999.90;;;;;;;18.60;63.82;96060.81;5070108;28;20236;-62
2021/05/22 07:49:51;;;;;;;1999.90;999.90;;;;;;;18.45;64.92;96069.34;5069846;28;20205;-59
2021/05/22 07:52:19;;;;;;;1999.90;999.90;;;;;;;18.63;64.38;96060.16;5072125;28;20825;-59
2021/05/22 07:54:47;;;;;;;1999.90;999.90;;;;;;;18.89;65.19;96052.66;5074054;28;20718;-60
2021/05/22 07:57:15;;;;;;;1999.90;999.90;;;;;;;19.01;64.48;96046.63;5073889;28;20291;-59
2021/05/22 07:59:42;;;;;;;1999.90;999.90;;;;;;;18.72;63.95;96052.16;5074260;28;20204;-60
2021/05/22 08:02:10;;;;;;;1999.90;999.90;;;;;;;18.91;63.80;96047.06;5073732;28;20215;-60
2021/05/22 08:04:37;;;;;;;1999.90;999.90;;;;;;;19.12;63.86;96047.69;5073550;28;20560;-61
2021/05/22 08:07:04;;;;;;;1999.90;999.90;;;;;;;18.75;65.26;96054.13;5073916;28;20212;-60
2021/05/22 08:09:31;;;;;;;1999.90;999.90;;;;;;;18.80;64.08;96054.66;5073635;28;20667;-60
2021/05/22 08:11:57;;;;;;;1999.90;999.90;;;;;;;19.10;64.09;96057.00;5073369;28;20516;-59
2021/05/22 08:14:24;;;;;;;1999.90;999.90;;;;;;;19.03;65.82;96056.84;5073740;28;20200;-60
2021/05/22 08:16:51;;;;;;;1999.90;999.90;;;;;;;19.18;64.61;96056.09;5073747;28;20232;-62
2021/05/22 08:19:19;;;;;;;1999.90;999.90;;;;;;;19.53;62.20;96056.34;5073358;28;20207;-60
2021/05/22 08:21:46;;;;;;;1999.90;999.90;;;;;;;19.62;63.09;96051.72;5073152;28;20277;-60
2021/05/22 08:24:13;;;;;;;1999.90;999.90;;;;;;;19.86;64.67;96061.38;5073379;28;20222;-61
2021/05/22 08:26:42;;;;;;;1999.90;999.90;;;;;;;19.84;63.42;96053.00;5073206;28;20193;-59
2021/05/22 08:29:10;;;;;;;1999.90;999.90;;;;;;;20.33;61.48;96043.69;5073149;28;20247;-60
2021/05/22 08:31:37;;;;;;;1999.90;999.90;;;;;;;20.59;59.90;96030.72;5073307;28;20204;-58
2021/05/22 08:34:05;;;;;;;1999.90;999.90;;;;;;;20.56;63.82;96034.06;5073331;28;20196;-60
2021/05/22 08:36:36;;;;;;;1999.90;999.90;;;;;;;20.53;59.17;96039.25;5073600;28;20231;-60
2021/05/22 08:39:04;;;;;;;1999.90;999.90;;;;;;;20.44;63.06;96044.72;5073758;28;20199;-61
2021/05/22 08:41:36;;;;;;;1999.90;999.90;;;;;;;20.57;62.78;96045.41;5073261;28;20655;-62
2021/05/22 08:44:04;;;;;;;1999.90;999.90;;;;;;;20.96;58.64;96043.59;5073058;28;20200;-61
2021/05/22 08:46:35;;;;;;;1999.90;999.90;;;;;;;21.12;60.60;96041.66;5073179;28;20679;-60
2021/05/22 08:49:03;;;;;;;1999.90;999.90;;;;;;;21.13;58.28;96047.69;5073295;28;20227;-61
2021/05/22 08:51:32;;;;;;;1999.90;999.90;;;;;;;21.20;58.57;96038.06;5072791;28;20693;-61
2021/05/22 08:54:00;;;;;;;1999.90;999.90;;;;;;;20.83;59.50;96029.72;5073081;28;20196;-60
2021/05/22 08:56:29;;;;;;;1999.90;999.90;;;;;;;20.89;59.18;96027.59;5073238;28;20200;-60
2021/05/22 08:58:57;;;;;;;1999.90;999.90;;;;;;;20.81;57.60;96031.97;5073196;28;20205;-61
2021/05/22 09:01:25;;;;;;;1999.90;999.90;;;;;;;20.86;57.01;96026.41;5072906;28;20239;-60
2021/05/22 09:03:56;;;;;;;1999.90;999.90;;;;;;;20.87;57.51;96021.91;5072601;28;20200;-61
2021/05/22 09:06:24;;;;;;;1999.90;999.90;;;;;;;20.63;60.45;96010.44;5072702;28;20249;-60
2021/05/22 09:09:06;;;;;;;1999.90;999.90;;;;;;;20.79;58.09;96015.69;5072678;28;20224;-60
2021/05/22 09:11:49;;;;;;;1999.90;999.90;;;;;;;20.86;57.88;96018.47;5072742;28;20203;-61
2021/05/22 09:14:41;;;;;;;1999.90;999.90;;;;;;;20.95;58.56;96020.91;5072423;28;20291;-61
2021/05/22 09:17:10;;;;;;;1999.90;999.90;;;;;;;20.75;59.16;96008.78;5072369;28;20711;-61
2021/05/22 09:19:38;;;;;;;1999.90;999.90;;;;;;;20.70;58.44;96009.06;5072478;28;20200;-59
2021/05/22 09:22:23;;;;;;;1999.90;999.90;;;;;;;20.78;56.76;96013.38;5072167;28;20277;-61
2021/05/22 09:25:01;;;;;;;1999.90;999.90;;;;;;;20.68;62.16;96011.28;5072361;28;20234;-60
2021/05/22 09:27:33;;;;;;;1999.90;999.90;;;;;;;20.72;60.64;96010.25;5072157;28;20202;-60
2021/05/22 09:30:06;;;;;;;1999.90;999.90;;;;;;;20.82;61.27;95998.38;5072355;28;20200;-60
2021/05/22 09:32:33;;;;;;;1999.90;999.90;;;;;;;21.03;60.00;96004.09;5072161;28;20216;-59
2021/05/22 09:35:00;;;;;;;1999.90;999.90;;;;;;;21.11;60.68;95992.56;5072069;28;20200;-59
2021/05/22 09:37:27;;;;;;;1999.90;999.90;;;;;;;21.05;58.48;95989.41;5072084;28;20223;-59
2021/05/22 09:39:54;;;;;;;1999.90;999.90;;;;;;;20.65;57.94;95993.47;5071788;28;20235;-60
2021/05/22 09:42:31;;;;;;;1999.90;999.90;;;;;;;20.41;58.63;95987.31;5071867;28;20279;-61
2021/05/22 09:45:01;;;;;;;1999.90;999.90;;;;;;;20.19;59.86;95986.03;5071742;28;20203;-60
2021/05/22 09:47:28;;;;;;;1999.90;999.90;;;;;;;20.17;60.55;95980.31;5071733;28;20199;-60
2021/05/22 09:49:55;;;;;;;1999.90;999.90;;;;;;;20.10;60.67;95976.75;5071901;28;20196;-60
2021/05/22 09:52:22;;;;;;;1999.90;999.90;;;;;;;20.36;60.17;95984.94;5072458;28;20207;-59
2021/05/22 09:54:51;;;;;;;1999.90;999.90;;;;;;;20.28;59.40;95966.59;5071681;28;20196;-60
2021/05/22 09:57:20;;;;;;;1999.90;999.90;;;;;;;20.59;58.91;95967.34;5072005;28;20208;-60
2021/05/22 10:00:11;;;;;;;1999.90;999.90;;;;;;;20.99;57.19;95963.63;5071270;28;20254;-60
2021/05/22 10:02:41;;;;;;;1999.90;999.90;;;;;;;21.10;55.67;95964.59;5071454;28;20196;-60
2021/05/22 10:05:13;;;;;;;1999.90;999.90;;;;;;;21.29;55.44;95955.91;5071522;28;20232;-60
2021/05/22 10:07:40;;;;;;;1999.90;999.90;;;;;;;21.47;54.35;95947.16;5071516;28;20275;-59
2021/05/22 10:10:08;;;;;;;1999.90;999.90;;;;;;;21.68;57.97;95936.19;5071670;28;20733;-60
2021/05/22 10:12:37;;;;;;;1999.90;999.90;;;;;;;21.70;51.74;95946.41;5071240;28;20195;-61
2021/05/22 10:15:08;;;;;;;1999.90;999.90;;;;;;;21.58;53.23;95936.00;5070586;28;20275;-60
2021/05/22 10:17:37;;;;;;;1999.90;999.90;;;;;;;21.81;53.21;95923.53;5071039;28;20258;-60
2021/05/22 10:20:05;;;;;;;1999.90;999.90;;;;;;;21.98;50.09;95920.41;5070906;28;20746;-60
2021/05/22 10:22:34;;;;;;;1999.90;999.90;;;;;;;22.09;48.72;95905.47;5071335;28;20220;-61
2021/05/22 10:25:02;;;;;;;1999.90;999.90;;;;;;;22.31;44.03;95903.88;5070997;28;20207;-61
2021/05/22 10:27:29;;;;;;;1999.90;999.90;;;;;;;22.31;46.47;95894.06;5070825;28;20200;-60
2021/05/22 10:29:56;;;;;;;1999.90;999.90;;;;;;;22.54;45.05;95888.66;5071112;28;20250;-61
2021/05/22 10:32:25;;;;;;;1999.90;999.90;;;;;;;22.42;42.23;95882.81;5070911;28;20351;-59
2021/05/22 10:34:53;;;;;;;1999.90;999.90;;;;;;;22.19;42.71;95880.25;5071055;28;20273;-60
2021/05/22 10:37:41;;;;;;;1999.90;999.90;;;;;;;22.26;44.78;95875.06;5070952;28;20197;-61
2021/05/22 10:40:09;;;;;;;1999.90;999.90;;;;;;;22.03;43.23;95866.41;5071304;28;20606;-59
2021/05/22 10:42:52;;;;;;;1999.90;999.90;;;;;;;22.03;41.65;95861.88;5070789;28;20510;-60
2021/05/22 10:45:31;;;;;;;1999.90;999.90;;;;;;;22.35;48.15;95857.03;5070723;28;20200;-59
2021/05/22 10:48:00;;;;;;;1999.90;999.90;;;;;;;22.57;47.99;95858.03;5070723;28;20292;-60
2021/05/22 10:50:41;;;;;;;1999.90;999.90;;;;;;;22.82;45.51;95853.78;5070672;28;20240;-60
2021/05/22 10:53:32;;;;;;;1999.90;999.90;;;;;;;22.92;46.41;95847.06;5070716;28;20197;-60
2021/05/22 10:56:14;;;;;;;1999.90;999.90;;;;;;;22.47;48.88;95854.13;5070489;28;20201;-59
2021/05/22 10:59:17;;;;;;;1999.90;999.90;;;;;;;22.90;40.17;95847.47;5070372;28;20196;-59
2021/05/22 11:01:47;;;;;;;1999.90;999.90;;;;;;;23.14;37.49;95812.47;5070621;28;20310;-59